createdAt,value
2017-07-01T00:01:34.308Z,15.30
2017-07-01T00:04:05.098Z,15.20
2017-07-01T00:06:37.790Z,15.30
2017-07-01T00:09:08.657Z,15.30
2017-07-01T00:11:41.551Z,15.30
2017-07-01T00:14:21.744Z,15.20
2017-07-01T00:22:16.082Z,15.20
2017-07-01T00:24:49.274Z,15.20
2017-07-01T00:27:22.265Z,15.20
2017-07-01T00:30:01.228Z,15.10
2017-07-01T00:32:40.387Z,15.10
2017-07-01T00:35:18.102Z,15.00
2017-07-01T00:37:56.127Z,14.80
2017-07-01T00:40:31.959Z,14.80
2017-07-01T00:45:47.247Z,14.60
2017-07-01T00:48:24.493Z,14.50
2017-07-01T00:50:58.380Z,14.00
2017-07-01T00:53:33.357Z,13.90
2017-07-01T00:56:14.847Z,13.90
2017-07-01T00:58:46.011Z,14.00
2017-07-01T01:04:02.452Z,14.10
2017-07-01T01:09:10.975Z,14.10
2017-07-01T01:11:49.231Z,14.00
2017-07-01T01:17:01.895Z,14.10
2017-07-01T01:19:39.635Z,14.10
2017-07-01T01:22:25.443Z,14.10
2017-07-01T01:24:56.337Z,14.20
2017-07-01T01:27:27.475Z,14.40
2017-07-01T01:29:58.271Z,14.50
2017-07-01T01:35:25.012Z,14.60
2017-07-01T01:49:15.872Z,14.90
2017-07-01T01:54:52.211Z,14.90
2017-07-01T02:03:20.320Z,15.20
2017-07-01T02:11:49.655Z,15.30
2017-07-01T02:17:26.442Z,15.30
2017-07-01T02:31:26.711Z,15.30
2017-07-01T02:39:45.647Z,15.30
2017-07-01T02:53:41.484Z,15.30
2017-07-01T03:07:44.636Z,15.30
2017-07-01T03:21:48.821Z,15.20
2017-07-01T03:24:39.900Z,15.20
2017-07-01T03:27:18.667Z,15.10
2017-07-01T03:30:01.840Z,15.10
2017-07-01T03:32:32.551Z,15.00
2017-07-01T03:35:02.399Z,15.00
2017-07-01T03:37:52.399Z,15.00
2017-07-01T03:43:46.609Z,15.00
2017-07-01T03:46:17.253Z,15.00
2017-07-01T04:00:14.108Z,14.90
2017-07-01T04:14:09.375Z,14.80
2017-07-01T04:27:56.836Z,15.00
2017-07-01T04:33:31.174Z,14.90
2017-07-01T04:36:19.791Z,14.90
2017-07-01T04:56:30.596Z,14.10
2017-07-01T05:10:41.551Z,14.30
2017-07-01T05:24:35.808Z,14.60
2017-07-01T05:38:40.712Z,14.80
2017-07-01T05:44:21.283Z,14.90
2017-07-01T05:49:38.863Z,14.90
2017-07-01T06:00:54.091Z,15.10
2017-07-01T06:09:07.084Z,14.90
2017-07-01T06:11:37.887Z,14.90
2017-07-01T06:14:11.820Z,14.80
2017-07-01T06:16:58.832Z,14.90
2017-07-01T06:19:44.403Z,14.50
2017-07-01T06:30:59.314Z,14.80
2017-07-01T06:45:05.068Z,15.20
2017-07-01T06:56:02.943Z,16.10
2017-07-01T06:58:37.917Z,16.20
2017-07-01T07:01:12.928Z,16.20
2017-07-01T07:03:54.407Z,16.20
2017-07-01T07:06:25.311Z,16.30
2017-07-01T07:09:00.679Z,16.60
2017-07-01T07:17:05.296Z,16.90
2017-07-01T07:19:36.438Z,16.90
2017-07-01T07:22:09.275Z,17.00
2017-07-01T07:24:40.123Z,17.20
2017-07-01T07:27:11.792Z,17.10
2017-07-01T07:29:45.600Z,16.80
2017-07-01T07:32:15.479Z,16.80
2017-07-01T07:34:48.452Z,16.90
2017-07-01T07:37:21.368Z,17.20
2017-07-01T07:39:51.204Z,17.20
2017-07-01T07:42:23.971Z,17.00
2017-07-01T07:44:55.818Z,17.00
2017-07-01T07:47:25.643Z,17.20
2017-07-01T07:49:55.466Z,18.30
2017-07-01T07:52:27.064Z,17.50
2017-07-01T07:54:59.902Z,17.40
2017-07-01T07:57:33.609Z,17.30
2017-07-01T08:00:06.281Z,17.80
2017-07-01T08:02:37.147Z,17.90
2017-07-01T08:05:07.036Z,17.90
2017-07-01T08:07:39.556Z,18.90
2017-07-01T08:10:10.428Z,18.90
2017-07-01T08:12:42.275Z,18.70
2017-07-01T08:15:12.132Z,18.40
2017-07-01T08:17:42.945Z,18.30
2017-07-01T08:20:13.639Z,18.60
2017-07-01T08:22:44.505Z,18.60
2017-07-01T08:25:14.337Z,18.20
2017-07-01T08:27:48.047Z,17.90
2017-07-01T08:30:17.875Z,17.90
2017-07-01T08:32:47.654Z,18.00
2017-07-01T08:35:20.370Z,18.10
2017-07-01T08:37:52.555Z,18.10
2017-07-01T08:40:22.443Z,18.30
2017-07-01T08:42:53.393Z,18.30
2017-07-01T08:45:27.279Z,18.70
2017-07-01T08:48:01.570Z,19.20
2017-07-01T08:50:32.691Z,18.90
2017-07-01T08:53:09.635Z,18.90
2017-07-01T08:55:41.838Z,18.80
2017-07-01T08:58:16.127Z,18.90
2017-07-01T09:00:48.063Z,19.00
2017-07-01T09:03:18.123Z,18.50
2017-07-01T09:05:49.137Z,18.30
2017-07-01T09:08:19.259Z,18.30
2017-07-01T09:10:50.403Z,18.10
2017-07-01T09:13:20.273Z,18.20
2017-07-01T09:15:51.463Z,18.40
2017-07-01T09:18:21.285Z,18.80
2017-07-01T09:20:54.102Z,18.80
2017-07-01T09:23:25.114Z,18.80
2017-07-01T09:25:55.876Z,19.00
2017-07-01T09:28:25.696Z,19.30
2017-07-01T09:30:55.504Z,19.00
2017-07-01T09:33:25.319Z,19.50
2017-07-01T09:35:56.401Z,19.80
2017-07-01T09:38:27.200Z,19.90
2017-07-01T09:40:57.300Z,20.40
2017-07-01T09:43:29.155Z,20.10
2017-07-01T09:45:58.977Z,20.10
2017-07-01T09:48:28.738Z,20.50
2017-07-01T09:51:00.602Z,20.80
2017-07-01T09:53:31.651Z,20.70
2017-07-01T09:56:02.484Z,20.80
2017-07-01T09:58:32.283Z,20.50
2017-07-01T10:01:04.123Z,20.70
2017-07-01T10:03:34.838Z,21.20
2017-07-01T10:06:05.771Z,22.30
2017-07-01T10:08:36.805Z,22.00
2017-07-01T10:11:09.584Z,21.50
2017-07-01T10:13:41.443Z,21.40
2017-07-01T10:16:13.226Z,21.40
2017-07-01T10:18:44.542Z,20.90
2017-07-01T10:21:15.417Z,20.50
2017-07-01T10:23:47.279Z,20.20
2017-07-01T10:26:17.406Z,20.50
2017-07-01T10:28:48.313Z,20.50
2017-07-01T10:31:21.100Z,20.50
2017-07-01T10:33:54.155Z,21.00
2017-07-01T10:36:23.987Z,21.10
2017-07-01T10:38:53.819Z,20.80
2017-07-01T10:41:25.652Z,20.80
2017-07-01T10:43:57.758Z,20.70
2017-07-01T10:46:28.887Z,20.60
2017-07-01T10:48:58.658Z,20.20
2017-07-01T10:51:31.436Z,20.60
2017-07-01T10:54:02.452Z,21.30
2017-07-01T10:56:32.511Z,21.70
2017-07-01T10:59:03.774Z,21.90
2017-07-01T11:01:35.623Z,23.00
2017-07-01T11:04:06.472Z,23.20
2017-07-01T11:06:38.274Z,22.60
2017-07-01T11:09:09.320Z,21.90
2017-07-01T11:11:39.176Z,21.80
2017-07-01T11:14:09.992Z,21.10
2017-07-01T11:16:40.736Z,21.00
2017-07-01T11:22:21.677Z,21.80
2017-07-01T11:28:00.480Z,22.00
2017-07-01T11:30:43.813Z,22.30
2017-07-01T11:33:21.854Z,21.30
2017-07-01T11:41:39.365Z,22.40
2017-07-01T11:44:27.967Z,21.70
2017-07-01T11:58:31.100Z,22.00
2017-07-01T12:01:19.680Z,21.70
2017-07-01T12:06:43.835Z,22.20
2017-07-01T12:12:14.424Z,22.70
2017-07-01T12:20:37.161Z,21.20
2017-07-01T12:28:58.311Z,22.30
2017-07-01T12:31:39.427Z,22.40
2017-07-01T12:42:52.829Z,25.70
2017-07-01T12:51:20.525Z,25.10
2017-07-01T12:53:55.784Z,25.10
2017-07-01T13:04:50.332Z,24.30
2017-07-01T13:18:59.692Z,23.20
2017-07-01T13:21:40.196Z,22.80
2017-07-01T13:27:10.065Z,21.90
2017-07-01T13:41:17.918Z,21.90
2017-07-01T13:49:46.910Z,20.80
2017-07-01T13:55:20.431Z,20.70
2017-07-01T13:58:05.755Z,21.00
2017-07-01T14:03:27.033Z,21.30
2017-07-01T14:09:07.955Z,21.70
2017-07-01T14:17:16.343Z,22.10
2017-07-01T14:31:18.767Z,24.60
2017-07-01T14:45:21.806Z,23.40
2017-07-01T14:53:33.153Z,20.70
2017-07-01T14:56:04.043Z,20.50
2017-07-01T14:58:35.851Z,20.50
2017-07-01T15:01:08.676Z,23.30
2017-07-01T15:03:38.837Z,23.20
2017-07-01T15:06:08.703Z,23.70
2017-07-01T15:08:42.520Z,22.80
2017-07-01T15:11:16.426Z,21.90
2017-07-01T15:13:46.240Z,21.10
2017-07-01T15:16:19.386Z,20.70
2017-07-01T15:18:49.473Z,20.20
2017-07-01T15:21:19.292Z,19.90
2017-07-01T15:23:50.433Z,20.00
2017-07-01T15:26:20.404Z,20.00
2017-07-01T15:28:51.554Z,19.90
2017-07-01T15:31:23.375Z,19.80
2017-07-01T15:33:56.051Z,20.00
2017-07-01T15:36:26.939Z,20.10
2017-07-01T15:38:56.878Z,20.10
2017-07-01T15:41:26.744Z,20.40
2017-07-01T15:43:58.830Z,21.50
2017-07-01T15:46:30.015Z,22.50
2017-07-01T15:49:00.741Z,21.70
2017-07-01T15:51:31.018Z,21.70
2017-07-01T15:54:02.733Z,21.50
2017-07-01T15:56:35.656Z,20.40
2017-07-01T15:59:06.909Z,20.40
2017-07-01T16:01:48.497Z,20.40
2017-07-01T16:04:20.724Z,20.10
2017-07-01T16:06:51.286Z,19.70
2017-07-01T16:09:21.156Z,19.70
2017-07-01T16:11:53.909Z,20.20
2017-07-01T16:14:25.035Z,20.10
2017-07-01T16:16:54.919Z,20.10
2017-07-01T16:19:26.076Z,20.00
2017-07-01T16:22:01.319Z,20.20
2017-07-01T16:24:31.206Z,20.30
2017-07-01T16:27:02.283Z,20.40
2017-07-01T16:29:34.205Z,20.30
2017-07-01T16:32:04.136Z,20.40
2017-07-01T16:34:34.937Z,20.50
2017-07-01T16:37:05.258Z,20.10
2017-07-01T16:39:35.129Z,19.70
2017-07-01T16:42:07.073Z,19.70
2017-07-01T16:44:38.009Z,19.60
2017-07-01T16:47:09.781Z,19.40
2017-07-01T16:49:41.694Z,19.50
2017-07-01T16:52:15.348Z,19.30
2017-07-01T16:54:47.293Z,19.30
2017-07-01T16:57:22.295Z,19.20
2017-07-01T16:59:56.039Z,19.30
2017-07-01T17:02:31.007Z,19.20
2017-07-01T17:05:01.914Z,19.30
2017-07-01T17:07:34.076Z,19.30
2017-07-01T17:10:03.881Z,19.30
2017-07-01T17:12:36.715Z,19.20
2017-07-01T17:15:08.806Z,19.20
2017-07-01T17:17:41.427Z,19.20
2017-07-01T17:20:11.723Z,19.20
2017-07-01T17:22:43.630Z,19.30
2017-07-01T17:25:16.815Z,19.30
2017-07-01T17:27:47.662Z,19.20
2017-07-01T17:30:20.513Z,19.10
2017-07-01T17:32:54.522Z,19.10
2017-07-01T17:35:24.429Z,19.00
2017-07-01T17:37:55.599Z,18.90
2017-07-01T17:40:25.447Z,18.80
2017-07-01T17:42:56.098Z,18.70
2017-07-01T17:45:26.050Z,18.60
2017-07-01T17:47:56.560Z,18.50
2017-07-01T17:50:27.326Z,18.30
2017-07-01T17:52:58.149Z,18.20
2017-07-01T17:55:30.039Z,18.20
2017-07-01T17:58:00.927Z,18.20
2017-07-01T18:00:30.815Z,18.20
2017-07-01T18:03:02.639Z,18.00
2017-07-01T18:05:33.762Z,18.00
2017-07-01T18:08:06.697Z,17.80
2017-07-01T18:10:37.256Z,17.60
2017-07-01T18:13:07.116Z,17.60
2017-07-01T18:15:37.136Z,17.60
2017-07-01T18:18:07.761Z,17.50
2017-07-01T18:20:37.836Z,17.50
2017-07-01T18:23:07.872Z,17.60
2017-07-01T18:25:37.982Z,17.50
2017-07-01T18:28:09.613Z,17.50
2017-07-01T18:30:39.507Z,17.40
2017-07-01T18:33:10.392Z,17.30
2017-07-01T18:35:41.027Z,17.20
2017-07-01T18:38:11.165Z,17.20
2017-07-01T18:40:42.011Z,17.30
2017-07-01T18:43:11.856Z,17.30
2017-07-01T18:45:42.058Z,17.30
2017-07-01T18:48:13.497Z,17.10
2017-07-01T18:50:44.039Z,17.00
2017-07-01T18:53:14.567Z,16.80
2017-07-01T18:55:44.509Z,16.80
2017-07-01T18:58:14.405Z,16.70
2017-07-01T19:00:44.421Z,16.60
2017-07-01T19:03:14.236Z,16.40
2017-07-01T19:05:44.062Z,16.20
2017-07-01T19:08:15.893Z,16.10
2017-07-01T19:10:45.970Z,16.00
2017-07-01T19:13:15.827Z,16.00
2017-07-01T19:15:47.789Z,15.90
2017-07-01T19:18:18.322Z,15.90
2017-07-01T19:20:48.117Z,15.90
2017-07-01T19:23:20.721Z,15.90
2017-07-01T19:25:52.549Z,15.90
2017-07-01T19:28:25.547Z,15.80
2017-07-01T19:30:57.220Z,15.80
2017-07-01T19:33:30.367Z,15.80
2017-07-01T19:36:01.486Z,15.80
2017-07-01T19:38:31.604Z,15.70
2017-07-01T19:41:01.498Z,15.60
2017-07-01T19:43:31.666Z,15.70
2017-07-01T19:46:04.809Z,15.70
2017-07-01T19:48:34.699Z,15.60
2017-07-01T19:51:10.971Z,15.70
2017-07-01T19:53:44.890Z,15.70
2017-07-01T19:56:19.839Z,15.70
2017-07-01T19:59:04.183Z,15.70
2017-07-01T20:04:38.532Z,15.60
2017-07-01T20:07:09.936Z,15.60
2017-07-01T20:21:15.279Z,15.60
2017-07-01T20:26:56.756Z,15.50
2017-07-01T20:29:46.255Z,15.60
2017-07-01T20:40:45.056Z,15.60
2017-07-01T20:46:20.372Z,15.40
2017-07-01T20:49:05.907Z,15.40
2017-07-01T20:57:13.032Z,15.40
2017-07-01T20:59:47.869Z,15.30
2017-07-01T21:05:11.738Z,14.80
2017-07-01T21:16:17.964Z,14.20
2017-07-01T21:19:07.592Z,14.10
2017-07-01T21:21:39.503Z,14.10
2017-07-01T21:27:01.068Z,14.10
2017-07-01T21:35:22.005Z,14.10
2017-07-01T21:49:26.263Z,14.10
2017-07-01T21:55:05.515Z,14.10
2017-07-01T22:03:25.760Z,14.20
2017-07-01T22:11:37.752Z,14.10
2017-07-01T22:14:12.299Z,14.10
2017-07-01T22:16:43.433Z,14.20
2017-07-01T22:19:21.496Z,14.20
2017-07-01T22:22:10.491Z,14.20
2017-07-01T22:24:57.330Z,14.20
2017-07-01T22:27:39.420Z,14.20
2017-07-01T22:30:26.839Z,14.10
2017-07-01T22:41:35.189Z,14.10
2017-07-01T22:47:15.469Z,14.10
2017-07-01T22:55:35.687Z,14.10
2017-07-01T22:58:12.834Z,14.00
2017-07-01T23:03:39.440Z,14.00
2017-07-01T23:17:40.632Z,14.10
2017-07-01T23:20:10.511Z,14.10
2017-07-01T23:25:49.054Z,14.10
2017-07-01T23:39:49.136Z,14.10
2017-07-01T23:45:30.644Z,14.10
2017-07-01T23:53:52.668Z,14.10
